Time;durP1;ratioP1;P1;durP2;ratioP2;P2;SDS_P1;SDS_P2;PMS_P1;PMS_P2;Temp;Humidity;BMP_temperature;BMP_pressure;BME280_temperature;BME280_humidity;BME280_pressure;Samples;Min_cycle;Max_cycle;Signal;HPM_P1;HPM_P2
2023/09/11 00:00:03;;;;;;;;;;;21.30;99.90;;;;;;5136928;27;20381;-44
2023/09/11 00:02:29;;;;;;;;;;;21.30;99.90;;;;;;5136053;27;19947;-42
2023/09/11 00:04:54;;;;;;;;;;;21.30;99.90;;;;;;5127288;27;19962;-43
2023/09/11 00:07:20;;;;;;;;;;;21.30;99.90;;;;;;5136885;27;19908;-43
2023/09/11 00:09:45;;;;;;;;;;;21.30;99.90;;;;;;5136766;27;19908;-41
2023/09/11 00:12:11;;;;;;;;;;;21.20;99.90;;;;;;5136667;27;19919;-43
2023/09/11 00:14:36;;;;;;;;;;;21.30;99.90;;;;;;5136580;27;19919;-41
2023/09/11 00:17:02;;;;;;;;;;;21.30;99.90;;;;;;5136579;27;20048;-41
2023/09/11 00:19:27;;;;;;;;;;;21.20;99.90;;;;;;5136558;27;19961;-46
2023/09/11 00:21:53;;;;;;;;;;;21.30;99.90;;;;;;5136567;27;20001;-41
2023/09/11 00:24:18;;;;;;;;;;;21.20;99.90;;;;;;5136280;27;19927;-42
2023/09/11 00:26:44;;;;;;;;;;;21.10;99.90;;;;;;5136482;27;19908;-42
2023/09/11 00:29:09;;;;;;;;;;;21.10;99.90;;;;;;5136276;27;20257;-41
2023/09/11 00:31:34;;;;;;;;;;;21.10;99.90;;;;;;5123212;27;19920;-41
2023/09/11 00:34:00;;;;;;;;;;;21.00;99.90;;;;;;5120544;27;20371;-41
2023/09/11 00:36:25;;;;;;;;;;;21.00;99.90;;;;;;5157138;27;19913;-43
2023/09/11 00:38:51;;;;;;;;;;;20.90;99.90;;;;;;5156967;27;20391;-43
2023/09/11 00:41:16;;;;;;;;;;;20.90;99.90;;;;;;5145431;27;19908;-42
2023/09/11 00:43:42;;;;;;;;;;;20.80;99.90;;;;;;5135964;27;19981;-43
2023/09/11 00:46:07;;;;;;;;;;;20.80;99.90;;;;;;5136094;27;20274;-41
2023/09/11 00:48:33;;;;;;;;;;;20.80;99.90;;;;;;5135878;27;19912;-43
2023/09/11 00:50:59;;;;;;;;;;;20.80;99.90;;;;;;5139601;27;19918;-42
2023/09/11 00:53:25;;;;;;;;;;;20.80;99.90;;;;;;5156594;27;19915;-42
2023/09/11 00:55:51;;;;;;;;;;;20.80;99.90;;;;;;5156574;27;19946;-42
2023/09/11 00:58:17;;;;;;;;;;;20.80;99.90;;;;;;5156542;27;19999;-42
2023/09/11 01:00:44;;;;;;;;;;;20.70;99.90;;;;;;5156173;27;19907;-43
2023/09/11 01:03:11;;;;;;;;;;;20.70;99.90;;;;;;5156015;27;19951;-44
2023/09/11 01:05:37;;;;;;;;;;;20.70;99.90;;;;;;5156313;27;20298;-42
2023/09/11 01:08:03;;;;;;;;;;;20.70;99.90;;;;;;5156359;27;19908;-42
2023/09/11 01:10:29;;;;;;;;;;;20.70;99.90;;;;;;5156440;27;19914;-41
2023/09/11 01:12:55;;;;;;;;;;;20.70;99.90;;;;;;5154544;27;20389;-41
2023/09/11 01:15:20;;;;;;;;;;;20.70;99.90;;;;;;5156192;27;19930;-42
2023/09/11 01:17:49;;;;;;;;;;;20.70;99.90;;;;;;5156166;27;19907;-41
2023/09/11 01:20:29;;;;;;;;;;;20.70;99.90;;;;;;5156091;27;20373;-43
2023/09/11 01:23:03;;;;;;;;;;;20.60;99.90;;;;;;5155728;27;19915;-43
2023/09/11 01:25:40;;;;;;;;;;;20.60;99.90;;;;;;5156010;27;20450;-42
2023/09/11 01:28:18;;;;;;;;;;;20.60;99.90;;;;;;5155429;27;20366;-43
2023/09/11 01:30:44;;;;;;;;;;;20.50;99.90;;;;;;5155541;27;19951;-41
2023/09/11 01:33:10;;;;;;;;;;;20.50;99.90;;;;;;5155731;27;19919;-42
2023/09/11 01:35:35;;;;;;;;;;;20.50;99.90;;;;;;5155769;27;19914;-44
2023/09/11 01:38:01;;;;;;;;;;;20.50;99.90;;;;;;5155731;27;19950;-42
2023/09/11 01:40:27;;;;;;;;;;;20.50;99.90;;;;;;5155854;27;19907;-43
2023/09/11 01:42:54;;;;;;;;;;;20.50;99.90;;;;;;5155226;27;20365;-43
2023/09/11 01:45:21;;;;;;;;;;;20.50;99.90;;;;;;5155634;27;19926;-44
2023/09/11 01:47:47;;;;;;;;;;;20.50;99.90;;;;;;5155575;27;19907;-42
2023/09/11 01:50:16;;;;;;;;;;;20.50;99.90;;;;;;5155399;27;19907;-42
2023/09/11 01:52:43;;;;;;;;;;;20.50;99.90;;;;;;5137652;27;19912;-42
2023/09/11 01:55:09;;;;;;;;;;;20.50;99.90;;;;;;5134636;27;20002;-42
2023/09/11 01:57:34;;;;;;;;;;;20.50;99.90;;;;;;5134788;27;20005;-43
2023/09/11 02:00:00;;;;;;;;;;;20.40;99.90;;;;;;5134439;27;20002;-43
2023/09/11 02:02:29;;;;;;;;;;;20.40;99.90;;;;;;5134521;27;20369;-43
2023/09/11 02:04:55;;;;;;;;;;;20.40;99.90;;;;;;5134467;27;19915;-42
2023/09/11 02:07:20;;;;;;;;;;;20.40;99.90;;;;;;5134471;27;20357;-42
2023/09/11 02:09:46;;;;;;;;;;;20.40;99.90;;;;;;5134395;27;19907;-44
2023/09/11 02:12:11;;;;;;;;;;;20.40;99.90;;;;;;5134408;27;20420;-47
2023/09/11 02:14:37;;;;;;;;;;;20.40;99.90;;;;;;5134443;27;19911;-42
2023/09/11 02:17:02;;;;;;;;;;;20.40;99.90;;;;;;5134177;27;19907;-42
2023/09/11 02:19:29;;;;;;;;;;;20.30;99.90;;;;;;5134418;27;19907;-43
2023/09/11 02:21:55;;;;;;;;;;;20.40;99.90;;;;;;5134252;27;19918;-42
2023/09/11 02:24:20;;;;;;;;;;;20.40;99.90;;;;;;5131288;27;19923;-42
2023/09/11 02:26:46;;;;;;;;;;;20.40;99.90;;;;;;5113633;28;20334;-44
2023/09/11 02:29:11;;;;;;;;;;;20.40;99.90;;;;;;5113389;28;19962;-43
2023/09/11 02:31:37;;;;;;;;;;;20.40;99.90;;;;;;5140911;27;20365;-43
2023/09/11 02:34:02;;;;;;;;;;;20.40;99.90;;;;;;5154752;27;20017;-42
2023/09/11 02:36:28;;;;;;;;;;;20.40;99.90;;;;;;5154857;27;19911;-41
2023/09/11 02:38:53;;;;;;;;;;;20.40;99.90;;;;;;5153824;27;20364;-41
2023/09/11 02:41:19;;;;;;;;;;;20.40;99.90;;;;;;5154167;27;19918;-42
2023/09/11 02:43:44;;;;;;;;;;;20.40;99.90;;;;;;5154671;27;19914;-43
2023/09/11 02:46:10;;;;;;;;;;;20.30;99.90;;;;;;5154599;27;19907;-43
2023/09/11 02:48:37;;;;;;;;;;;20.30;99.90;;;;;;5147626;27;19911;-42
2023/09/11 02:51:03;;;;;;;;;;;20.30;99.90;;;;;;5133728;27;19912;-42
2023/09/11 02:53:28;;;;;;;;;;;20.30;99.90;;;;;;5133884;27;20379;-42
2023/09/11 02:55:54;;;;;;;;;;;20.20;99.90;;;;;;5133751;27;19950;-43
2023/09/11 02:58:19;;;;;;;;;;;20.20;99.90;;;;;;5133612;27;19911;-44
2023/09/11 03:00:44;;;;;;;;;;;20.20;99.90;;;;;;5133928;28;19907;-43
2023/09/11 03:03:10;;;;;;;;;;;20.20;99.90;;;;;;5133859;28;20455;-42
2023/09/11 03:05:35;;;;;;;;;;;20.20;99.90;;;;;;5115744;28;19920;-43
2023/09/11 03:08:01;;;;;;;;;;;20.20;99.90;;;;;;5129105;27;20379;-42
2023/09/11 03:10:27;;;;;;;;;;;20.20;99.90;;;;;;5133733;28;19950;-44
2023/09/11 03:12:54;;;;;;;;;;;20.20;99.90;;;;;;5133623;28;19911;-42
2023/09/11 03:15:20;;;;;;;;;;;20.20;99.90;;;;;;5133547;28;19912;-45
2023/09/11 03:17:49;;;;;;;;;;;20.20;99.90;;;;;;5146242;27;20289;-46
2023/09/11 03:20:14;;;;;;;;;;;20.20;99.90;;;;;;5154164;27;20281;-43
2023/09/11 03:22:40;;;;;;;;;;;20.20;99.90;;;;;;5154263;27;19907;-42
2023/09/11 03:25:05;;;;;;;;;;;20.20;99.90;;;;;;5154121;27;20365;-44
2023/09/11 03:27:31;;;;;;;;;;;20.10;99.90;;;;;;5135889;27;19984;-43
2023/09/11 03:29:56;;;;;;;;;;;20.10;99.90;;;;;;5133380;28;19915;-42
2023/09/11 03:32:22;;;;;;;;;;;20.10;99.90;;;;;;5115200;28;19920;-43
2023/09/11 03:34:53;;;;;;;;;;;20.10;99.90;;;;;;5112884;28;19930;-41
2023/09/11 03:37:19;;;;;;;;;;;20.10;99.90;;;;;;5127800;27;19921;-42
2023/09/11 03:39:45;;;;;;;;;;;20.10;99.90;;;;;;5153634;27;19911;-42
2023/09/11 03:42:10;;;;;;;;;;;20.00;99.90;;;;;;5154050;27;19911;-42
2023/09/11 03:44:36;;;;;;;;;;;20.00;99.90;;;;;;5153947;27;19915;-42
2023/09/11 03:47:01;;;;;;;;;;;19.90;99.90;;;;;;5149112;27;20044;-45
2023/09/11 03:49:27;;;;;;;;;;;20.00;99.90;;;;;;5133802;27;19962;-43
2023/09/11 03:51:52;;;;;;;;;;;19.90;99.90;;;;;;5137174;27;19943;-43
2023/09/11 03:54:18;;;;;;;;;;;19.90;99.90;;;;;;5137200;27;19916;-41
2023/09/11 03:56:43;;;;;;;;;;;19.90;99.90;;;;;;5136989;27;19919;-43
2023/09/11 03:59:09;;;;;;;;;;;19.90;99.90;;;;;;5136909;27;19917;-42
2023/09/11 04:01:34;;;;;;;;;;;19.90;99.90;;;;;;5137039;27;20386;-44
2023/09/11 04:04:00;;;;;;;;;;;19.90;99.90;;;;;;5118321;27;19907;-42
2023/09/11 04:06:25;;;;;;;;;;;19.80;99.90;;;;;;5137129;27;19940;-45
2023/09/11 04:08:51;;;;;;;;;;;19.80;99.90;;;;;;5136679;27;20002;-43
2023/09/11 04:11:22;;;;;;;;;;;19.80;99.90;;;;;;5136790;27;20362;-43
2023/09/11 04:13:48;;;;;;;;;;;19.70;99.90;;;;;;5136687;27;19914;-42
2023/09/11 04:16:15;;;;;;;;;;;19.80;99.90;;;;;;5136475;27;19911;-43
2023/09/11 04:18:42;;;;;;;;;;;19.70;99.90;;;;;;5136856;27;20361;-43
2023/09/11 04:21:07;;;;;;;;;;;19.80;99.90;;;;;;5136496;27;19908;-41
2023/09/11 04:23:33;;;;;;;;;;;19.70;99.90;;;;;;5136575;27;20416;-43
2023/09/11 04:25:58;;;;;;;;;;;19.80;99.90;;;;;;5136283;27;20010;-41
2023/09/11 04:28:24;;;;;;;;;;;19.80;99.90;;;;;;5136374;27;19911;-42
2023/09/11 04:30:49;;;;;;;;;;;19.80;99.90;;;;;;5136185;27;19919;-45
2023/09/11 04:33:16;;;;;;;;;;;19.80;99.90;;;;;;5136373;27;20374;-42
2023/09/11 04:35:41;;;;;;;;;;;19.70;99.90;;;;;;5136275;27;20450;-44
2023/09/11 04:38:07;;;;;;;;;;;19.70;99.90;;;;;;5136178;27;19958;-43
2023/09/11 04:40:32;;;;;;;;;;;19.70;99.90;;;;;;5136209;27;19939;-43
2023/09/11 04:42:58;;;;;;;;;;;19.70;99.90;;;;;;5136178;27;20365;-43
2023/09/11 04:45:23;;;;;;;;;;;19.70;99.90;;;;;;5137831;27;20006;-44
2023/09/11 04:47:49;;;;;;;;;;;19.70;99.90;;;;;;5156901;27;20357;-43
2023/09/11 04:50:14;;;;;;;;;;;19.70;99.90;;;;;;5156899;27;19913;-42
2023/09/11 04:52:40;;;;;;;;;;;19.70;99.90;;;;;;5156977;27;19929;-43
2023/09/11 04:55:06;;;;;;;;;;;19.70;99.90;;;;;;5156189;27;19911;-46
2023/09/11 04:57:31;;;;;;;;;;;19.70;99.90;;;;;;5156636;27;19918;-46
2023/09/11 04:59:57;;;;;;;;;;;19.70;99.90;;;;;;5156575;27;20297;-42
2023/09/11 05:02:22;;;;;;;;;;;19.70;99.90;;;;;;5155584;27;20006;-43
2023/09/11 05:04:48;;;;;;;;;;;19.70;99.90;;;;;;5151381;27;19919;-44
2023/09/11 05:07:14;;;;;;;;;;;19.70;99.90;;;;;;5144704;27;20026;-41
2023/09/11 05:09:39;;;;;;;;;;;19.70;99.90;;;;;;5135720;27;20352;-43
2023/09/11 05:12:05;;;;;;;;;;;19.70;99.90;;;;;;5135507;27;19907;-43
2023/09/11 05:14:30;;;;;;;;;;;19.60;99.90;;;;;;5143366;27;19911;-43
2023/09/11 05:16:56;;;;;;;;;;;19.60;99.90;;;;;;5155724;27;20331;-42
2023/09/11 05:19:21;;;;;;;;;;;19.70;99.90;;;;;;5156273;27;19908;-44
2023/09/11 05:21:47;;;;;;;;;;;19.70;99.90;;;;;;5156070;27;19907;-41
2023/09/11 05:24:12;;;;;;;;;;;19.70;99.90;;;;;;5150272;27;20384;-41
2023/09/11 05:26:38;;;;;;;;;;;19.70;99.90;;;;;;5135205;27;19908;-42
2023/09/11 05:29:03;;;;;;;;;;;19.60;99.90;;;;;;5135324;27;20336;-46
2023/09/11 05:31:29;;;;;;;;;;;19.70;99.90;;;;;;5135019;27;19919;-44
2023/09/11 05:33:54;;;;;;;;;;;19.70;99.90;;;;;;5137194;27;19951;-43
2023/09/11 05:36:20;;;;;;;;;;;19.70;99.90;;;;;;5155546;27;20009;-43
2023/09/11 05:38:47;;;;;;;;;;;19.70;99.90;;;;;;5155775;27;19914;-41
2023/09/11 05:41:13;;;;;;;;;;;19.70;99.90;;;;;;5155694;27;20001;-43
2023/09/11 05:43:40;;;;;;;;;;;19.80;99.90;;;;;;5155673;27;20352;-41
2023/09/11 05:46:06;;;;;;;;;;;19.80;99.90;;;;;;5134736;27;20027;-42
2023/09/11 05:48:31;;;;;;;;;;;19.80;99.90;;;;;;5134801;27;19976;-41
2023/09/11 05:50:57;;;;;;;;;;;19.80;99.90;;;;;;5133608;27;19911;-43
2023/09/11 05:53:22;;;;;;;;;;;19.80;99.90;;;;;;5121974;27;19925;-42
2023/09/11 05:55:48;;;;;;;;;;;19.90;99.90;;;;;;5124710;27;19915;-42
2023/09/11 05:58:14;;;;;;;;;;;19.90;99.90;;;;;;5112597;28;19908;-44
2023/09/11 06:00:39;;;;;;;;;;;19.90;99.90;;;;;;5117337;27;19915;-43
2023/09/11 06:03:04;;;;;;;;;;;20.00;99.90;;;;;;5138673;27;20010;-42
2023/09/11 06:05:31;;;;;;;;;;;20.00;99.90;;;;;;5134515;27;20382;-43
2023/09/11 06:07:57;;;;;;;;;;;20.10;99.90;;;;;;5134393;27;19914;-42
2023/09/11 06:10:22;;;;;;;;;;;20.10;99.90;;;;;;5134408;27;19911;-42
2023/09/11 06:12:48;;;;;;;;;;;20.20;99.90;;;;;;5153617;27;20284;-41
2023/09/11 06:15:14;;;;;;;;;;;20.20;99.90;;;;;;5149163;27;20014;-41
2023/09/11 06:17:40;;;;;;;;;;;20.30;99.90;;;;;;5130583;27;19915;-43
2023/09/11 06:20:09;;;;;;;;;;;20.30;99.90;;;;;;5134175;27;19908;-42
2023/09/11 06:22:37;;;;;;;;;;;20.30;99.90;;;;;;5131021;27;20275;-43
2023/09/11 06:25:04;;;;;;;;;;;20.40;99.90;;;;;;5113504;28;20370;-43
2023/09/11 06:27:30;;;;;;;;;;;20.40;99.90;;;;;;5126782;27;19911;-43
2023/09/11 06:29:55;;;;;;;;;;;20.50;99.90;;;;;;5137663;27;20289;-42
2023/09/11 06:32:21;;;;;;;;;;;20.50;99.90;;;;;;5139415;27;19923;-43
2023/09/11 06:34:46;;;;;;;;;;;20.60;99.90;;;;;;5139646;27;19919;-41
2023/09/11 06:37:12;;;;;;;;;;;20.70;99.90;;;;;;5122029;27;20389;-41
2023/09/11 06:39:37;;;;;;;;;;;20.70;99.90;;;;;;5131921;27;19911;-48
2023/09/11 06:42:03;;;;;;;;;;;20.80;99.90;;;;;;5135037;27;19911;-42
2023/09/11 06:44:30;;;;;;;;;;;20.90;99.90;;;;;;5133683;27;20032;-43
2023/09/11 06:46:56;;;;;;;;;;;21.00;99.90;;;;;;5144672;27;19998;-41
2023/09/11 06:49:22;;;;;;;;;;;21.10;99.90;;;;;;5142686;27;20002;-43
2023/09/11 06:51:47;;;;;;;;;;;21.10;99.90;;;;;;5130785;27;19918;-43
2023/09/11 06:54:13;;;;;;;;;;;21.20;99.90;;;;;;5123174;27;20438;-42
2023/09/11 06:56:41;;;;;;;;;;;21.30;99.90;;;;;;5144170;27;19919;-42
2023/09/11 06:59:06;;;;;;;;;;;21.30;99.90;;;;;;5127436;27;19953;-42
2023/09/11 07:01:38;;;;;;;;;;;21.40;99.90;;;;;;5119727;27;19919;-43
2023/09/11 07:04:05;;;;;;;;;;;21.50;99.90;;;;;;5128544;27;19915;-41
2023/09/11 07:06:30;;;;;;;;;;;21.50;99.90;;;;;;5148131;27;19993;-42
2023/09/11 07:08:56;;;;;;;;;;;21.60;99.90;;;;;;5144011;27;19972;-41
2023/09/11 07:11:21;;;;;;;;;;;21.60;99.90;;;;;;5123777;27;19914;-43
2023/09/11 07:13:47;;;;;;;;;;;21.60;99.90;;;;;;5120200;28;20350;-41
2023/09/11 07:16:13;;;;;;;;;;;21.70;99.90;;;;;;5131035;27;19915;-44
2023/09/11 07:18:38;;;;;;;;;;;21.70;99.90;;;;;;5135029;27;19960;-42
2023/09/11 07:21:04;;;;;;;;;;;21.80;99.90;;;;;;5133511;28;19915;-41
2023/09/11 07:23:29;;;;;;;;;;;21.80;99.90;;;;;;5133437;28;19938;-42
2023/09/11 07:25:55;;;;;;;;;;;21.90;99.90;;;;;;5154630;27;19919;-43
2023/09/11 07:28:24;;;;;;;;;;;21.90;99.90;;;;;;5158211;27;19914;-41
2023/09/11 07:30:49;;;;;;;;;;;22.00;99.90;;;;;;5157886;27;19914;-44
2023/09/11 07:33:15;;;;;;;;;;;22.10;99.90;;;;;;5158145;27;19908;-43
2023/09/11 07:35:41;;;;;;;;;;;22.10;99.90;;;;;;5144416;27;19925;-43
2023/09/11 07:38:06;;;;;;;;;;;22.20;99.90;;;;;;5157816;27;19957;-43
2023/09/11 07:40:32;;;;;;;;;;;22.20;99.90;;;;;;5150759;27;19921;-43
2023/09/11 07:42:57;;;;;;;;;;;22.30;99.90;;;;;;5141434;27;19912;-42
2023/09/11 07:45:23;;;;;;;;;;;22.40;99.90;;;;;;5138407;27;19923;-43
2023/09/11 07:47:48;;;;;;;;;;;22.40;99.90;;;;;;5136587;27;19911;-42
2023/09/11 07:50:14;;;;;;;;;;;22.50;99.90;;;;;;5137177;27;20006;-42
2023/09/11 07:52:39;;;;;;;;;;;22.60;99.90;;;;;;5135842;27;19994;-45
2023/09/11 07:55:06;;;;;;;;;;;22.60;99.90;;;;;;5136080;27;19911;-46
2023/09/11 07:57:32;;;;;;;;;;;22.70;99.90;;;;;;5137169;27;19979;-43
2023/09/11 08:00:03;;;;;;;;;;;22.70;99.90;;;;;;5137988;27;20365;-44
2023/09/11 08:02:29;;;;;;;;;;;22.80;99.90;;;;;;5145002;27;19911;-42
2023/09/11 08:04:54;;;;;;;;;;;22.90;99.90;;;;;;5148086;27;19938;-43
2023/09/11 08:07:20;;;;;;;;;;;23.00;99.90;;;;;;5136357;27;19919;-41
2023/09/11 08:09:46;;;;;;;;;;;23.10;99.90;;;;;;5138536;27;20361;-43
2023/09/11 08:12:12;;;;;;;;;;;23.20;99.90;;;;;;5137440;27;20377;-43
2023/09/11 08:14:37;;;;;;;;;;;23.30;99.90;;;;;;5124213;27;19987;-42
2023/09/11 08:17:03;;;;;;;;;;;23.30;99.90;;;;;;5127008;27;20010;-41
2023/09/11 08:19:28;;;;;;;;;;;23.50;99.90;;;;;;5116422;28;19908;-43
2023/09/11 08:21:54;;;;;;;;;;;23.50;99.90;;;;;;5116587;28;20094;-42
2023/09/11 08:24:20;;;;;;;;;;;23.70;99.90;;;;;;5150744;27;19930;-45
2023/09/11 08:26:45;;;;;;;;;;;23.70;99.90;;;;;;5154032;27;19911;-41
2023/09/11 08:29:14;;;;;;;;;;;23.80;99.90;;;;;;5126868;27;19977;-44
2023/09/11 08:31:39;;;;;;;;;;;23.80;99.90;;;;;;5127732;27;19927;-46
2023/09/11 08:34:05;;;;;;;;;;;23.90;99.90;;;;;;5135198;27;19963;-42
2023/09/11 08:36:30;;;;;;;;;;;23.90;99.90;;;;;;5141076;27;19911;-44
2023/09/11 08:38:56;;;;;;;;;;;24.00;99.90;;;;;;5123009;27;20382;-41
2023/09/11 08:41:23;;;;;;;;;;;24.20;99.90;;;;;;5143708;27;19957;-41
2023/09/11 08:43:49;;;;;;;;;;;24.30;99.90;;;;;;5149032;27;19953;-42
2023/09/11 08:46:18;;;;;;;;;;;24.40;99.90;;;;;;5140108;27;19915;-41
2023/09/11 08:48:44;;;;;;;;;;;24.50;99.90;;;;;;5133635;27;19922;-41
2023/09/11 08:51:11;;;;;;;;;;;24.60;99.90;;;;;;5133776;27;19911;-41
2023/09/11 08:53:38;;;;;;;;;;;24.70;99.90;;;;;;5123020;27;20374;-43
2023/09/11 08:56:04;;;;;;;;;;;24.80;99.90;;;;;;5135667;27;19907;-43
2023/09/11 08:58:30;;;;;;;;;;;24.90;99.90;;;;;;5139245;27;20012;-41
2023/09/11 09:00:56;;;;;;;;;;;24.90;99.90;;;;;;5156579;27;19955;-43
2023/09/11 09:03:23;;;;;;;;;;;25.10;99.90;;;;;;5156547;27;19911;-41
2023/09/11 09:05:49;;;;;;;;;;;25.20;99.90;;;;;;5156476;27;19938;-42
2023/09/11 09:08:15;;;;;;;;;;;25.30;99.90;;;;;;5155187;27;20365;-42
2023/09/11 09:10:41;;;;;;;;;;;25.40;99.90;;;;;;5135806;27;19927;-42
2023/09/11 09:13:07;;;;;;;;;;;25.40;99.90;;;;;;5135640;27;19940;-43
2023/09/11 09:15:33;;;;;;;;;;;25.50;99.90;;;;;;5135480;27;19912;-43
2023/09/11 09:18:00;;;;;;;;;;;25.60;99.90;;;;;;5135531;27;19907;-43
2023/09/11 09:20:28;;;;;;;;;;;25.70;99.90;;;;;;5153372;27;19914;-42
2023/09/11 09:22:58;;;;;;;;;;;25.70;99.90;;;;;;5156091;27;19923;-42
2023/09/11 09:25:24;;;;;;;;;;;25.70;99.90;;;;;;5156071;27;19975;-46
2023/09/11 09:27:50;;;;;;;;;;;25.80;99.90;;;;;;5156187;27;19907;-41
2023/09/11 09:30:19;;;;;;;;;;;26.00;99.90;;;;;;5139021;27;19911;-41
2023/09/11 09:32:45;;;;;;;;;;;26.00;99.90;;;;;;5118082;27;19919;-41
2023/09/11 09:35:11;;;;;;;;;;;26.10;99.90;;;;;;5114591;28;19912;-41
2023/09/11 09:37:36;;;;;;;;;;;26.20;99.90;;;;;;5114497;28;19915;-43
2023/09/11 09:40:04;;;;;;;;;;;26.20;99.90;;;;;;5100939;28;19947;-41
2023/09/11 09:42:40;;;;;;;;;;;26.30;99.90;;;;;;5094046;28;19959;-42
2023/09/11 09:45:05;;;;;;;;;;;26.30;99.90;;;;;;5093940;28;19916;-41
2023/09/11 09:47:31;;;;;;;;;;;26.40;99.90;;;;;;5093749;28;19916;-41
2023/09/11 09:49:57;;;;;;;;;;;26.40;99.90;;;;;;5105004;28;19919;-43
2023/09/11 09:52:29;;;;;;;;;;;26.50;99.90;;;;;;5114291;28;20423;-42
2023/09/11 09:54:58;;;;;;;;;;;26.60;99.90;;;;;;5114149;28;20366;-42
2023/09/11 09:57:25;;;;;;;;;;;26.60;99.90;;;;;;5114178;28;19915;-44
2023/09/11 09:59:57;;;;;;;;;;;26.70;99.90;;;;;;5103506;28;19912;-44
2023/09/11 10:02:25;;;;;;;;;;;26.70;99.90;;;;;;5093693;28;19912;-42
2023/09/11 10:04:51;;;;;;;;;;;26.80;99.90;;;;;;5093638;28;19917;-41
2023/09/11 10:07:34;;;;;;;;;;;26.90;99.90;;;;;;5093664;28;19908;-42
2023/09/11 10:10:17;;;;;;;;;;;27.00;99.90;;;;;;5094494;28;20342;-43
2023/09/11 10:12:42;;;;;;;;;;;27.10;99.90;;;;;;5093615;28;19962;-43
2023/09/11 10:15:08;;;;;;;;;;;27.10;99.90;;;;;;5093447;28;19908;-43
2023/09/11 10:17:35;;;;;;;;;;;27.10;99.90;;;;;;5093516;28;19908;-43
2023/09/11 10:20:02;;;;;;;;;;;27.10;99.90;;;;;;5102851;28;20365;-42
2023/09/11 10:22:28;;;;;;;;;;;27.10;99.90;;;;;;5113723;28;19911;-45
2023/09/11 10:24:54;;;;;;;;;;;27.10;99.90;;;;;;5113673;28;19970;-44
2023/09/11 10:27:19;;;;;;;;;;;27.20;99.90;;;;;;5113654;28;19907;-42
2023/09/11 10:29:48;;;;;;;;;;;27.30;99.90;;;;;;5105906;28;20410;-42
2023/09/11 10:32:17;;;;;;;;;;;27.30;99.90;;;;;;5116573;27;19948;-42
2023/09/11 10:34:43;;;;;;;;;;;27.30;99.90;;;;;;5134129;27;19922;-43
2023/09/11 10:37:08;;;;;;;;;;;27.30;99.90;;;;;;5134007;27;19907;-42
2023/09/11 10:39:37;;;;;;;;;;;27.40;99.90;;;;;;5138661;27;20411;-43
2023/09/11 10:42:02;;;;;;;;;;;27.40;99.90;;;;;;5154725;27;20403;-41
2023/09/11 10:44:28;;;;;;;;;;;27.60;99.90;;;;;;5154691;27;19955;-41
2023/09/11 10:46:53;;;;;;;;;;;27.60;99.90;;;;;;5154647;27;20112;-41
2023/09/11 10:49:27;;;;;;;;;;;27.80;99.90;;;;;;5150997;27;19911;-41
2023/09/11 10:51:53;;;;;;;;;;;27.80;99.90;;;;;;5149110;27;19934;-42
2023/09/11 10:54:21;;;;;;;;;;;27.80;99.90;;;;;;5154541;27;20353;-41
2023/09/11 10:56:50;;;;;;;;;;;27.90;99.90;;;;;;5154613;27;19915;-43
2023/09/11 10:59:19;;;;;;;;;;;27.90;99.90;;;;;;5153670;27;20018;-43
2023/09/11 11:01:45;;;;;;;;;;;28.00;99.90;;;;;;5140889;27;19916;-42
2023/09/11 11:04:12;;;;;;;;;;;28.00;99.90;;;;;;5133576;28;19907;-41
2023/09/11 11:06:42;;;;;;;;;;;28.00;99.90;;;;;;5133770;28;20362;-42
2023/09/11 11:09:22;;;;;;;;;;;28.10;99.90;;;;;;5133709;28;19953;-43
2023/09/11 11:11:47;;;;;;;;;;;28.10;99.90;;;;;;5146238;27;19911;-41
2023/09/11 11:14:13;;;;;;;;;;;28.10;99.90;;;;;;5154553;27;19911;-43
2023/09/11 11:16:39;;;;;;;;;;;28.10;99.90;;;;;;5154316;27;20037;-41
2023/09/11 11:19:05;;;;;;;;;;;28.20;99.90;;;;;;5154338;27;19934;-42
2023/09/11 11:21:37;;;;;;;;;;;28.20;99.90;;;;;;5144658;27;19924;-43
2023/09/11 11:24:04;;;;;;;;;;;28.20;99.90;;;;;;5133496;28;20005;-42
2023/09/11 11:26:30;;;;;;;;;;;28.30;99.90;;;;;;5133545;28;19915;-44
2023/09/11 11:28:56;;;;;;;;;;;28.30;99.90;;;;;;5133479;28;19907;-43
2023/09/11 11:31:22;;;;;;;;;;;28.30;99.90;;;;;;5140605;27;19919;-43
2023/09/11 11:33:51;;;;;;;;;;;28.40;99.90;;;;;;5154122;27;19911;-42
2023/09/11 11:36:18;;;;;;;;;;;28.50;99.90;;;;;;5154198;27;20361;-42
2023/09/11 11:38:44;;;;;;;;;;;28.50;99.90;;;;;;5154046;27;19917;-41
2023/09/11 11:41:10;;;;;;;;;;;28.50;99.90;;;;;;5134258;27;19909;-41
2023/09/11 11:43:35;;;;;;;;;;;28.60;99.90;;;;;;5133419;28;19943;-42
2023/09/11 11:46:01;;;;;;;;;;;28.70;99.90;;;;;;5133377;28;19955;-43
2023/09/11 11:48:27;;;;;;;;;;;28.80;99.90;;;;;;5133417;28;19908;-42
2023/09/11 11:50:53;;;;;;;;;;;28.80;99.90;;;;;;5149399;27;19907;-42
2023/09/11 11:53:22;;;;;;;;;;;28.80;99.90;;;;;;5153971;27;20006;-41
2023/09/11 11:55:48;;;;;;;;;;;28.80;99.90;;;;;;5154089;27;20373;-42
2023/09/11 11:58:14;;;;;;;;;;;28.80;99.90;;;;;;5153874;27;19911;-42
2023/09/11 12:00:40;;;;;;;;;;;28.80;99.90;;;;;;5139727;27;19907;-42
2023/09/11 12:03:09;;;;;;;;;;;28.80;99.90;;;;;;5133209;28;19912;-42
2023/09/11 12:05:35;;;;;;;;;;;28.70;99.90;;;;;;5133003;28;20425;-41
2023/09/11 12:08:01;;;;;;;;;;;28.70;99.90;;;;;;5133079;28;19954;-42
2023/09/11 12:10:27;;;;;;;;;;;28.70;99.90;;;;;;5145035;27;19914;-42
2023/09/11 12:12:53;;;;;;;;;;;28.70;99.90;;;;;;5157505;27;19911;-42
2023/09/11 12:15:18;;;;;;;;;;;28.70;99.90;;;;;;5157422;27;19907;-42
2023/09/11 12:17:47;;;;;;;;;;;28.80;99.90;;;;;;5157437;27;19914;-45
2023/09/11 12:20:14;;;;;;;;;;;28.80;99.90;;;;;;5147064;27;20392;-44
2023/09/11 12:22:41;;;;;;;;;;;28.90;99.90;;;;;;5136703;27;19998;-46
2023/09/11 12:25:06;;;;;;;;;;;28.90;99.90;;;;;;5136445;27;19953;-43
2023/09/11 12:27:33;;;;;;;;;;;29.00;99.90;;;;;;5136547;27;19947;-41
2023/09/11 12:29:59;;;;;;;;;;;29.00;99.90;;;;;;5143711;27;20418;-43
2023/09/11 12:32:24;;;;;;;;;;;29.00;99.90;;;;;;5156918;27;19923;-42
2023/09/11 12:34:50;;;;;;;;;;;29.10;99.90;;;;;;5157095;27;19907;-44
2023/09/11 12:37:15;;;;;;;;;;;29.00;99.90;;;;;;5157024;27;19921;-41
2023/09/11 12:39:41;;;;;;;;;;;29.00;99.90;;;;;;5152124;27;19955;-42
2023/09/11 12:42:06;;;;;;;;;;;29.00;99.30;;;;;;5136222;27;19907;-42
2023/09/11 12:44:32;;;;;;;;;;;29.10;99.90;;;;;;5136219;27;19922;-41
2023/09/11 12:47:00;;;;;;;;;;;29.10;98.70;;;;;;5136169;27;19957;-46
2023/09/11 12:49:26;;;;;;;;;;;29.10;98.30;;;;;;5151958;27;19911;-43
2023/09/11 12:51:52;;;;;;;;;;;29.30;99.30;;;;;;5157065;27;19952;-42
2023/09/11 12:54:17;;;;;;;;;;;29.40;98.90;;;;;;5156715;27;19952;-43
2023/09/11 12:56:43;;;;;;;;;;;29.50;98.80;;;;;;5156784;27;20230;-43
2023/09/11 12:59:10;;;;;;;;;;;29.70;99.90;;;;;;5142400;27;20370;-44
2023/09/11 13:01:35;;;;;;;;;;;29.90;97.50;;;;;;5135898;27;19907;-41
2023/09/11 13:04:00;;;;;;;;;;;30.00;98.40;;;;;;5135786;27;19907;-42
2023/09/11 13:06:27;;;;;;;;;;;30.00;98.20;;;;;;5135662;27;19968;-41
2023/09/11 13:08:54;;;;;;;;;;;30.10;98.40;;;;;;5145063;27;19926;-41
2023/09/11 13:11:19;;;;;;;;;;;30.20;97.40;;;;;;5156436;27;20165;-42
2023/09/11 13:13:45;;;;;;;;;;;30.30;98.20;;;;;;5156513;27;20474;-42
2023/09/11 13:16:10;;;;;;;;;;;30.40;97.70;;;;;;5156272;27;19913;-41
2023/09/11 13:18:36;;;;;;;;;;;30.50;97.40;;;;;;5149683;27;19925;-41
2023/09/11 13:21:01;;;;;;;;;;;30.80;97.70;;;;;;5135421;27;19915;-41
2023/09/11 13:23:27;;;;;;;;;;;30.90;97.30;;;;;;5134690;27;20281;-41
2023/09/11 13:25:52;;;;;;;;;;;31.10;96.60;;;;;;5135236;27;19966;-42
2023/09/11 13:28:18;;;;;;;;;;;31.10;95.40;;;;;;5137733;27;19968;-44
2023/09/11 13:30:43;;;;;;;;;;;31.30;96.20;;;;;;5156051;27;19911;-42
2023/09/11 13:33:09;;;;;;;;;;;31.40;95.90;;;;;;5155835;27;19964;-42
2023/09/11 13:35:34;;;;;;;;;;;31.60;95.60;;;;;;5156058;27;19907;-41
2023/09/11 13:38:02;;;;;;;;;;;31.70;95.80;;;;;;5155841;27;19951;-41
2023/09/11 13:40:28;;;;;;;;;;;31.70;95.10;;;;;;5135727;27;19951;-45
2023/09/11 13:42:53;;;;;;;;;;;31.80;95.30;;;;;;5135116;27;20408;-42
2023/09/11 13:45:19;;;;;;;;;;;31.80;93.30;;;;;;5134975;27;20438;-42
2023/09/11 13:47:44;;;;;;;;;;;31.90;95.80;;;;;;5135079;27;19908;-42
2023/09/11 13:50:10;;;;;;;;;;;32.00;93.80;;;;;;5152389;27;19911;-43
2023/09/11 13:52:36;;;;;;;;;;;32.10;95.20;;;;;;5155903;27;19929;-41
2023/09/11 13:55:02;;;;;;;;;;;32.20;94.50;;;;;;5155450;27;19907;-41
2023/09/11 13:57:28;;;;;;;;;;;32.20;92.70;;;;;;5155539;27;19976;-43
2023/09/11 13:59:53;;;;;;;;;;;32.30;94.70;;;;;;5140120;27;20307;-42
2023/09/11 14:02:19;;;;;;;;;;;32.30;93.70;;;;;;5134558;27;19908;-42
2023/09/11 14:04:44;;;;;;;;;;;32.30;94.00;;;;;;5134659;27;19919;-41
2023/09/11 14:07:10;;;;;;;;;;;32.30;94.00;;;;;;5134580;27;19911;-40
2023/09/11 14:09:35;;;;;;;;;;;32.30;93.50;;;;;;5145885;27;19911;-40